Portada
METAR-TAF:

METAR-TAF

Aeroports :

Clarmont d'Alvèrnia, França

latitud: 45-47N, longitud: 003-10E, altitud: 332 m

Observació

L'informe es va fer fa 22 minuts, a les 04:30 UTC
Vent 2 kt del Sud/Sud-Est
Temperatura -2°C
Humitat 80%
Pressió 1031 hPa
Visibilitat 10 km o més
sense núvols per sota de 1500 mi sense presència de cumulonimbus.

METAR: LFLC 200430Z AUTO 16002KT CAVOK M02/M05 Q1031 NOSIG

Hora: 05:52 (04:52 UTC)

Pronòstic

L'informe es va fer fa 2 hores i 52 minuts, a les 02:00 UTC
Pronòstic vàlid del 20 a les 03 UTC al 21 a les 03 UTC
Vent 2 kt amb direcció variable
Visibilitat 10 km o més
sense núvols per sota de 1500 mi sense presència de cumulonimbus.
Evolucionant progressivament
l' 20 a les 08 UTC al 20 a les 10 UTC
Vent 12 kt del Nord/Nord-Est
Evolucionant progressivament
l' 20 a les 21 UTC al 20 a les 24 UTC
Vent 2 kt amb direcció variable

TAF: LFLC 200200Z 2003/2103 VRB02KT CAVOK BECMG 2008/2010 02012KT BECMG 2021/2024 VRB02KT

Observacions i pronòstics meteorològics de més de 4000 aeroports (METAR i TAF).

Les estacions disponibles són els punts grocs i vermells al mapa.

Posi el ratolí al punt desitjat per veure el nom de l'estació.

Feu clic per veure les observacions i els pronòstics meteorològics.

Per canviar el mapa: feu clic els botons verds amb una creu de color negre per apropar; al botó verd amb un guió per allunyar la imatge; o en les fletxes verdes per a mapes adjacents.


METAR-TAF: